createdAt,value
2018-03-21T00:02:19.752Z,6.77
2018-03-21T00:07:14.185Z,8.83
2018-03-21T00:12:08.498Z,7.60
2018-03-21T00:17:02.809Z,5.43
2018-03-21T00:21:57.179Z,5.83
2018-03-21T00:26:51.528Z,7.17
2018-03-21T00:31:46.583Z,8.80
2018-03-21T00:36:40.898Z,11.33
2018-03-21T00:41:35.231Z,7.20
2018-03-21T00:46:29.542Z,6.53
2018-03-21T00:51:23.831Z,8.97
2018-03-21T00:56:18.169Z,6.03
2018-03-21T01:01:13.245Z,11.17
2018-03-21T01:06:07.625Z,7.27
2018-03-21T01:11:01.931Z,8.87
2018-03-21T01:15:56.229Z,5.80
2018-03-21T01:20:50.575Z,9.43
2018-03-21T01:25:45.697Z,5.23
2018-03-21T01:30:40.181Z,10.87
2018-03-21T01:35:34.402Z,7.53
2018-03-21T01:40:29.472Z,10.77
2018-03-21T01:45:23.795Z,8.60
2018-03-21T01:50:18.109Z,8.33
2018-03-21T01:55:12.413Z,7.13
2018-03-21T02:00:07.484Z,7.13
2018-03-21T02:05:01.772Z,9.67
2018-03-21T02:09:56.077Z,8.47
2018-03-21T02:14:50.388Z,6.90
2018-03-21T02:19:45.725Z,6.93
2018-03-21T02:24:40.042Z,11.43
2018-03-21T02:29:34.338Z,11.03
2018-03-21T02:34:28.648Z,10.77
2018-03-21T02:39:22.951Z,9.10
2018-03-21T02:44:17.273Z,8.63
2018-03-21T02:49:12.352Z,8.90
2018-03-21T02:54:06.764Z,7.33
2018-03-21T02:59:01.142Z,9.53
2018-03-21T03:03:55.508Z,9.17
2018-03-21T03:08:49.864Z,10.77
2018-03-21T03:13:44.199Z,9.97
2018-03-21T03:18:39.398Z,8.10
2018-03-21T03:23:33.735Z,12.33
2018-03-21T03:28:29.015Z,10.13
2018-03-21T03:33:23.560Z,7.20
2018-03-21T03:38:18.646Z,10.83
2018-03-21T03:43:12.945Z,9.03
2018-03-21T03:48:07.269Z,11.40
2018-03-21T03:53:01.586Z,11.43
2018-03-21T03:57:56.661Z,9.93
2018-03-21T04:02:51.065Z,9.27
2018-03-21T04:07:45.482Z,7.00
2018-03-21T04:12:39.781Z,15.37
2018-03-21T04:17:34.068Z,9.20
2018-03-21T04:22:28.374Z,8.97
2018-03-21T04:27:22.782Z,7.93
2018-03-21T04:32:17.225Z,9.70
2018-03-21T04:37:12.411Z,11.83
2018-03-21T04:42:06.539Z,13.40
2018-03-21T04:47:01.881Z,10.47
2018-03-21T04:51:56.200Z,9.70
2018-03-21T04:56:50.553Z,12.43
2018-03-21T05:01:46.248Z,10.90
2018-03-21T05:06:40.953Z,10.37
2018-03-21T05:11:35.644Z,12.77
2018-03-21T05:16:30.777Z,9.17
2018-03-21T05:21:25.148Z,8.57
2018-03-21T05:26:19.623Z,9.53
2018-03-21T05:31:13.936Z,10.53
2018-03-21T05:36:08.270Z,11.87
2018-03-21T05:41:03.476Z,8.53
2018-03-21T05:45:58.988Z,10.50
2018-03-21T05:50:53.461Z,11.53
2018-03-21T05:55:47.776Z,12.27
2018-03-21T06:00:42.288Z,9.60
2018-03-21T06:05:36.652Z,9.27
2018-03-21T06:10:31.145Z,10.87
2018-03-21T06:15:26.262Z,12.93
2018-03-21T06:20:21.477Z,14.83
2018-03-21T06:25:16.725Z,11.43
2018-03-21T06:30:11.138Z,15.60
2018-03-21T06:35:05.227Z,13.37
2018-03-21T06:39:59.583Z,12.50
2018-03-21T06:44:55.238Z,15.97
2018-03-21T06:49:50.633Z,12.60
2018-03-21T06:54:45.036Z,13.43
2018-03-21T06:59:39.711Z,15.50
2018-03-21T07:04:34.030Z,12.33
2018-03-21T07:09:28.355Z,10.67
2018-03-21T07:14:40.405Z,15.47
2018-03-21T07:19:35.113Z,22.83
2018-03-21T07:24:31.359Z,14.90
2018-03-21T07:29:26.253Z,13.87
2018-03-21T07:34:21.346Z,14.33
2018-03-21T07:39:15.926Z,28.77
2018-03-21T07:44:10.272Z,42.50
2018-03-21T07:49:04.664Z,33.47
2018-03-21T07:53:59.189Z,36.63
2018-03-21T07:58:53.524Z,47.40
2018-03-21T08:03:48.610Z,47.23
2018-03-21T08:08:42.980Z,55.57
2018-03-21T08:13:37.506Z,56.70
2018-03-21T08:18:32.018Z,57.00
2018-03-21T08:23:26.410Z,52.13
2018-03-21T08:28:20.904Z,53.27
2018-03-21T08:33:15.212Z,54.70
2018-03-21T08:38:09.613Z,46.30
2018-03-21T08:43:03.946Z,60.90
2018-03-21T08:47:58.371Z,60.87
2018-03-21T08:52:53.467Z,58.70
2018-03-21T08:57:47.778Z,53.63
2018-03-21T09:02:42.892Z,52.70
2018-03-21T09:07:37.476Z,50.47
2018-03-21T09:12:31.816Z,47.77
2018-03-21T09:17:26.878Z,44.40
2018-03-21T09:22:21.203Z,43.60
2018-03-21T09:27:15.508Z,42.57
2018-03-21T09:32:09.844Z,41.67
2018-03-21T09:37:05.018Z,39.27
2018-03-21T09:42:00.232Z,42.30
2018-03-21T09:46:54.800Z,45.87
2018-03-21T09:51:49.223Z,42.47
2018-03-21T09:56:43.748Z,38.73
2018-03-21T10:01:37.764Z,45.07
2018-03-21T10:06:32.214Z,49.97
2018-03-21T10:11:26.595Z,48.33
2018-03-21T10:16:22.170Z,51.27
2018-03-21T10:21:16.488Z,47.33
2018-03-21T10:26:10.990Z,42.80
2018-03-21T10:31:05.302Z,44.00
2018-03-21T10:35:59.648Z,42.27
2018-03-21T10:40:54.738Z,47.03
2018-03-21T10:45:49.838Z,39.37
2018-03-21T10:50:44.318Z,50.20
2018-03-21T10:55:38.622Z,40.60
2018-03-21T11:00:32.951Z,41.10
2018-03-21T11:05:27.307Z,34.87
2018-03-21T11:10:21.626Z,37.77
2018-03-21T11:15:16.370Z,36.40
2018-03-21T11:20:10.846Z,39.43
2018-03-21T11:25:05.175Z,40.00
2018-03-21T11:30:01.165Z,52.57
2018-03-21T11:34:55.484Z,48.50
2018-03-21T11:39:49.919Z,47.80
2018-03-21T11:44:44.248Z,43.83
2018-03-21T11:49:39.436Z,40.23
2018-03-21T11:54:33.740Z,43.70
2018-03-21T11:59:27.979Z,31.90
2018-03-21T12:04:22.312Z,39.40
2018-03-21T12:09:16.781Z,37.83
2018-03-21T12:14:11.867Z,44.13
2018-03-21T12:19:06.222Z,45.93
2018-03-21T12:24:00.554Z,40.70
2018-03-21T12:28:56.520Z,37.17
2018-03-21T12:33:51.193Z,40.17
2018-03-21T12:38:45.824Z,44.33
2018-03-21T12:43:40.130Z,39.00
2018-03-21T12:48:34.441Z,36.63
2018-03-21T12:53:28.769Z,36.10
2018-03-21T12:58:23.068Z,46.67
2018-03-21T13:03:17.601Z,38.13
2018-03-21T13:08:12.316Z,19.87
2018-03-21T13:13:06.620Z,26.07
2018-03-21T13:18:00.926Z,27.23
2018-03-21T13:22:55.244Z,24.87
2018-03-21T13:27:49.577Z,19.70
2018-03-21T13:32:44.660Z,20.30
2018-03-21T13:37:39.024Z,22.47
2018-03-21T13:42:33.341Z,23.30
2018-03-21T13:47:27.489Z,19.87
2018-03-21T13:52:22.622Z,23.90
2018-03-21T13:57:17.273Z,23.13
2018-03-21T14:02:11.651Z,21.53
2018-03-21T14:07:06.159Z,26.00
2018-03-21T14:12:00.665Z,18.60
2018-03-21T14:16:55.372Z,20.37
2018-03-21T14:21:49.664Z,23.90
2018-03-21T14:26:44.882Z,31.80
2018-03-21T14:31:40.120Z,27.30
2018-03-21T14:36:34.222Z,28.07
2018-03-21T14:41:28.650Z,29.20
2018-03-21T14:46:23.142Z,26.50
2018-03-21T14:51:17.469Z,24.67
2018-03-21T14:56:11.977Z,24.83
2018-03-21T15:01:06.322Z,21.67
2018-03-21T15:06:01.546Z,24.53
2018-03-21T15:10:55.876Z,19.30
2018-03-21T15:15:50.181Z,14.17
2018-03-21T15:20:44.485Z,14.17
2018-03-21T15:25:38.782Z,16.57
2018-03-21T15:30:33.080Z,18.23
2018-03-21T15:35:27.391Z,15.97
2018-03-21T15:40:21.815Z,20.43
2018-03-21T15:45:16.120Z,15.43
2018-03-21T15:50:11.197Z,17.20
2018-03-21T15:55:05.614Z,18.50
2018-03-21T16:00:00.078Z,23.50
2018-03-21T16:04:55.141Z,20.93
2018-03-21T16:09:49.450Z,21.07
2018-03-21T16:14:43.942Z,20.63
2018-03-21T16:19:38.243Z,16.87
2018-03-21T16:24:32.836Z,18.53
2018-03-21T16:29:27.156Z,18.03
2018-03-21T16:34:21.461Z,21.45
2018-03-21T16:39:16.665Z,19.43
2018-03-21T16:44:10.990Z,16.83
2018-03-21T16:49:05.346Z,19.43
2018-03-21T16:53:59.919Z,19.37
2018-03-21T16:58:54.218Z,20.30
2018-03-21T17:03:49.281Z,19.53
2018-03-21T17:08:43.608Z,18.87
2018-03-21T17:13:38.228Z,16.70
2018-03-21T17:18:32.325Z,21.97
2018-03-21T17:23:26.684Z,18.90
2018-03-21T17:28:21.126Z,18.27
2018-03-21T17:33:15.452Z,19.53
2018-03-21T17:38:09.789Z,24.77
2018-03-21T17:43:04.607Z,22.87
2018-03-21T17:47:58.913Z,22.37
2018-03-21T17:52:53.212Z,21.40
2018-03-21T17:57:47.602Z,17.77
2018-03-21T18:02:42.018Z,26.73
2018-03-21T18:07:36.562Z,22.30
2018-03-21T18:12:30.907Z,19.83
2018-03-21T18:17:25.982Z,19.83
2018-03-21T18:22:20.294Z,27.73
2018-03-21T18:27:14.699Z,20.13
2018-03-21T18:32:09.025Z,19.70
2018-03-21T18:37:04.081Z,18.50
2018-03-21T18:41:58.405Z,17.77
2018-03-21T18:46:52.992Z,19.47
2018-03-21T18:51:47.100Z,20.00
2018-03-21T18:56:41.438Z,19.23
2018-03-21T19:01:35.935Z,20.03
2018-03-21T19:06:31.042Z,25.63
2018-03-21T19:11:25.363Z,20.37
2018-03-21T19:16:19.690Z,24.63
2018-03-21T19:21:14.780Z,18.80
2018-03-21T19:26:09.088Z,17.20
2018-03-21T19:31:04.184Z,15.93
2018-03-21T19:35:59.464Z,22.90
2018-03-21T19:40:53.775Z,21.50
2018-03-21T19:45:47.860Z,17.93
2018-03-21T19:50:42.357Z,21.97
2018-03-21T19:55:36.748Z,21.63
2018-03-21T20:00:36.132Z,25.37
2018-03-21T20:05:30.508Z,22.23
2018-03-21T20:10:25.918Z,22.33
2018-03-21T20:15:20.294Z,23.80
2018-03-21T20:20:15.649Z,18.97
2018-03-21T20:25:10.340Z,20.17
2018-03-21T20:30:05.416Z,23.77
2018-03-21T20:34:59.795Z,17.87
2018-03-21T20:39:54.323Z,23.67
2018-03-21T20:44:48.753Z,25.30
2018-03-21T20:49:44.860Z,16.00
2018-03-21T20:54:39.149Z,20.57
2018-03-21T20:59:33.625Z,24.50
2018-03-21T21:04:29.595Z,23.97
2018-03-21T21:09:24.072Z,24.23
2018-03-21T21:14:19.166Z,23.87
2018-03-21T21:19:13.499Z,21.77
2018-03-21T21:24:08.604Z,18.13
2018-03-21T21:29:03.690Z,21.23
2018-03-21T21:34:00.561Z,28.97
2018-03-21T21:38:56.890Z,19.43
2018-03-21T21:43:51.634Z,17.80
2018-03-21T21:48:46.408Z,19.17
2018-03-21T21:53:41.895Z,22.73
2018-03-21T21:58:37.055Z,20.37
2018-03-21T22:03:32.434Z,15.37
2018-03-21T22:08:29.157Z,21.37
2018-03-21T22:13:24.165Z,23.87
2018-03-21T22:18:18.958Z,23.13
2018-03-21T22:23:13.807Z,22.03
2018-03-21T22:28:09.375Z,24.53
2018-03-21T22:33:04.294Z,23.87
2018-03-21T22:37:59.064Z,21.47
2018-03-21T22:42:57.171Z,18.97
2018-03-21T22:47:52.463Z,25.87
2018-03-21T22:52:47.354Z,22.63
2018-03-21T22:57:42.245Z,23.33
2018-03-21T23:02:37.924Z,19.43
2018-03-21T23:07:32.860Z,20.20
2018-03-21T23:12:29.380Z,21.33
2018-03-21T23:17:24.068Z,23.60
2018-03-21T23:22:19.842Z,20.47
2018-03-21T23:27:15.545Z,20.27
2018-03-21T23:32:09.889Z,23.40
2018-03-21T23:37:04.318Z,24.00
2018-03-21T23:41:59.527Z,24.20
2018-03-21T23:46:54.221Z,20.37
2018-03-21T23:51:48.791Z,19.97
2018-03-21T23:56:44.098Z,22.73
